createdAt,value
2018-07-12T00:00:27.573Z,70.70
2018-07-12T00:02:55.568Z,70.80
2018-07-12T00:05:23.507Z,71.10
2018-07-12T00:07:51.579Z,72.10
2018-07-12T00:10:19.649Z,70.90
2018-07-12T00:12:47.544Z,72.00
2018-07-12T00:15:15.616Z,72.00
2018-07-12T00:17:43.763Z,73.30
2018-07-12T00:20:11.681Z,71.80
2018-07-12T00:22:39.729Z,72.50
2018-07-12T00:25:07.769Z,72.90
2018-07-12T00:27:35.857Z,72.10
2018-07-12T00:30:03.843Z,72.50
2018-07-12T00:32:31.881Z,72.90
2018-07-12T00:34:59.833Z,73.20
2018-07-12T00:37:27.749Z,73.20
2018-07-12T00:39:55.611Z,73.20
2018-07-12T00:42:23.580Z,73.20
2018-07-12T00:44:51.474Z,72.60
2018-07-12T00:47:19.492Z,72.70
2018-07-12T00:49:47.594Z,73.10
2018-07-12T00:52:15.430Z,73.10
2018-07-12T00:57:12.699Z,73.80
2018-07-12T00:59:41.111Z,72.90
2018-07-12T01:02:08.874Z,72.90
2018-07-12T01:04:37.250Z,74.10
2018-07-12T01:07:05.582Z,74.00
2018-07-12T01:09:33.469Z,73.60
2018-07-12T01:12:01.465Z,74.10
2018-07-12T01:14:29.507Z,74.10
2018-07-12T01:16:57.608Z,73.90
2018-07-12T01:19:25.579Z,73.70
2018-07-12T01:21:53.722Z,73.80
2018-07-12T01:24:21.720Z,73.80
2018-07-12T01:26:49.770Z,73.80
2018-07-12T01:29:17.839Z,73.30
2018-07-12T01:31:45.906Z,73.40
2018-07-12T01:34:13.950Z,73.40
2018-07-12T01:36:42.048Z,72.70
2018-07-12T01:39:12.395Z,73.80
2018-07-12T01:41:43.214Z,74.60
2018-07-12T01:44:16.130Z,74.10
2018-07-12T01:46:44.266Z,74.30
2018-07-12T01:49:12.338Z,75.20
2018-07-12T01:51:40.437Z,74.60
2018-07-12T01:54:08.481Z,73.90
2018-07-12T01:56:36.552Z,74.20
2018-07-12T01:59:05.442Z,74.50
2018-07-12T02:01:33.360Z,74.40
2018-07-12T02:04:01.278Z,74.00
2018-07-12T02:06:29.352Z,75.00
2018-07-12T02:08:57.115Z,74.40
2018-07-12T02:11:25.184Z,74.80
2018-07-12T02:13:53.255Z,74.10
2018-07-12T02:16:21.123Z,74.60
2018-07-12T02:18:49.037Z,74.70
2018-07-12T02:21:17.061Z,74.90
2018-07-12T02:23:45.133Z,74.40
2018-07-12T02:26:13.149Z,74.20
2018-07-12T02:28:41.173Z,73.60
2018-07-12T02:31:09.173Z,73.70
2018-07-12T02:33:37.112Z,74.00
2018-07-12T02:36:05.183Z,74.40
2018-07-12T02:38:33.317Z,73.70
2018-07-12T02:41:01.186Z,73.70
2018-07-12T02:43:29.192Z,73.70
2018-07-12T02:45:57.314Z,73.60
2018-07-12T02:48:25.445Z,74.00
2018-07-12T02:50:53.509Z,73.30
2018-07-12T02:53:21.584Z,73.80
2018-07-12T02:55:49.856Z,74.30
2018-07-12T02:58:17.931Z,73.30
2018-07-12T03:00:45.926Z,73.00
2018-07-12T03:03:13.968Z,73.80
2018-07-12T03:05:42.040Z,73.10
2018-07-12T03:08:10.175Z,73.40
2018-07-12T03:10:38.116Z,73.90
2018-07-12T03:13:06.052Z,73.10
2018-07-12T03:15:34.129Z,74.00
2018-07-12T03:18:02.116Z,74.00
2018-07-12T03:20:30.062Z,73.70
2018-07-12T03:22:58.058Z,74.10
2018-07-12T03:25:25.998Z,73.90
2018-07-12T03:27:54.069Z,74.40
2018-07-12T03:30:21.941Z,74.00
2018-07-12T03:32:50.067Z,74.20
2018-07-12T03:35:18.178Z,74.40
2018-07-12T03:37:46.042Z,74.00
2018-07-12T03:40:14.152Z,74.80
2018-07-12T03:42:42.398Z,74.40
2018-07-12T03:45:10.367Z,74.60
2018-07-12T03:47:38.334Z,74.70
2018-07-12T03:50:06.303Z,75.00
2018-07-12T03:52:34.479Z,74.90
2018-07-12T03:55:02.413Z,74.80
2018-07-12T03:57:30.516Z,74.50
2018-07-12T03:59:58.512Z,74.70
2018-07-12T04:02:26.488Z,75.00
2018-07-12T04:04:54.527Z,74.20
2018-07-12T04:07:22.525Z,74.20
2018-07-12T04:09:50.706Z,74.30
2018-07-12T04:12:18.741Z,73.50
2018-07-12T04:14:46.740Z,74.50
2018-07-12T04:19:48.953Z,73.60
2018-07-12T04:22:16.801Z,73.20
2018-07-12T04:24:44.830Z,73.80
2018-07-12T04:27:12.624Z,73.50
2018-07-12T04:29:40.416Z,73.50
2018-07-12T04:32:08.533Z,72.60
2018-07-12T04:34:36.633Z,73.20
2018-07-12T04:37:04.608Z,72.90
2018-07-12T04:39:32.851Z,74.00
2018-07-12T04:42:00.717Z,74.70
2018-07-12T04:44:28.578Z,73.60
2018-07-12T04:46:56.657Z,73.10
2018-07-12T04:49:24.624Z,73.20
2018-07-12T04:51:53.880Z,73.30
2018-07-12T04:54:21.927Z,72.90
2018-07-12T04:56:50.200Z,71.30
2018-07-12T04:59:19.194Z,70.50
2018-07-12T05:01:47.833Z,69.50
2018-07-12T05:04:15.743Z,69.70
2018-07-12T05:09:12.297Z,67.50
2018-07-12T05:11:40.160Z,68.10
2018-07-12T05:14:08.206Z,68.90
2018-07-12T05:16:35.972Z,68.50
2018-07-12T05:19:04.040Z,65.90
2018-07-12T05:21:32.113Z,67.60
2018-07-12T05:24:00.109Z,68.50
2018-07-12T05:26:28.068Z,67.60
2018-07-12T05:28:56.122Z,67.90
2018-07-12T05:31:24.398Z,66.10
2018-07-12T05:33:52.367Z,67.70
2018-07-12T05:36:29.341Z,68.80
2018-07-12T05:38:59.072Z,68.80
2018-07-12T05:41:28.855Z,65.00
2018-07-12T05:43:58.568Z,68.60
2018-07-12T05:46:28.372Z,65.80
2018-07-12T05:48:58.071Z,66.60
2018-07-12T05:51:27.813Z,67.70
2018-07-12T05:53:57.296Z,66.60
2018-07-12T05:56:26.967Z,66.60
2018-07-12T05:58:56.730Z,67.00
2018-07-12T06:01:37.199Z,68.50
2018-07-12T06:04:07.331Z,64.50
2018-07-12T06:06:37.072Z,62.00
2018-07-12T06:09:10.000Z,62.20
2018-07-12T06:14:08.985Z,67.00
2018-07-12T06:16:38.734Z,62.20
2018-07-12T06:19:08.495Z,63.00
2018-07-12T06:21:38.237Z,63.10
2018-07-12T06:24:08.016Z,63.20
2018-07-12T06:26:37.660Z,60.80
2018-07-12T06:29:07.457Z,59.30
2018-07-12T06:31:37.150Z,58.80
2018-07-12T06:34:06.863Z,58.80
2018-07-12T06:36:36.664Z,57.20
2018-07-12T06:39:08.258Z,57.30
2018-07-12T06:41:41.349Z,57.70
2018-07-12T06:44:11.013Z,58.10
2018-07-12T06:46:40.575Z,57.20
2018-07-12T06:49:10.364Z,57.30
2018-07-12T06:51:40.148Z,57.90
2018-07-12T06:54:09.900Z,59.80
2018-07-12T06:56:39.781Z,55.50
2018-07-12T06:59:09.530Z,1.00
2018-07-12T07:01:39.497Z,46.40
2018-07-12T07:04:09.129Z,37.00
2018-07-12T07:06:38.917Z,1.00
2018-07-12T07:09:10.533Z,33.40
2018-07-12T07:11:40.660Z,99.90
2018-07-12T07:14:10.446Z,15.80
2018-07-12T07:16:40.263Z,27.70
2018-07-12T07:19:09.951Z,30.60
2018-07-12T07:21:39.659Z,29.90
2018-07-12T07:24:09.397Z,29.50
2018-07-12T07:26:39.266Z,1.00
2018-07-12T07:29:08.908Z,1.00
2018-07-12T07:31:38.705Z,27.50
2018-07-12T07:34:08.442Z,1.00
2018-07-12T07:36:38.117Z,99.90
2018-07-12T07:39:08.976Z,45.70
2018-07-12T07:41:38.788Z,1.00
2018-07-12T07:44:08.511Z,1.00
2018-07-12T07:46:38.228Z,99.90
2018-07-12T07:49:08.147Z,1.00
2018-07-12T07:51:37.891Z,1.00
2018-07-12T07:56:36.934Z,1.00
2018-07-12T07:59:06.613Z,1.00
2018-07-12T08:01:36.293Z,1.00
2018-07-12T08:04:06.225Z,1.00
2018-07-12T08:06:35.889Z,1.00
2018-07-12T08:09:06.708Z,1.00
2018-07-12T08:11:36.461Z,1.00
2018-07-12T08:14:06.259Z,1.00
2018-07-12T08:16:35.938Z,1.00
2018-07-12T08:19:06.012Z,1.00
2018-07-12T08:21:35.785Z,39.50
2018-07-12T08:24:05.714Z,41.50
2018-07-12T08:26:35.523Z,40.20
2018-07-12T08:29:05.381Z,39.00
2018-07-12T08:34:04.280Z,29.50
2018-07-12T08:36:34.050Z,9.60
2018-07-12T08:39:04.512Z,1.00
2018-07-12T08:41:34.391Z,99.90
2018-07-12T08:44:04.268Z,1.00
2018-07-12T08:46:34.016Z,1.00
2018-07-12T08:49:03.921Z,1.00
2018-07-12T08:51:33.537Z,1.00
2018-07-12T08:54:03.350Z,1.00
2018-07-12T08:56:33.360Z,1.00
2018-07-12T08:59:03.211Z,1.00
2018-07-12T09:01:32.991Z,1.00
2018-07-12T09:04:02.809Z,1.00
2018-07-12T09:06:32.567Z,1.00
2018-07-12T09:09:02.249Z,1.00
2018-07-12T09:11:32.137Z,1.00
2018-07-12T09:14:12.703Z,43.80
2018-07-12T09:16:43.335Z,1.00
2018-07-12T09:19:13.072Z,1.00
2018-07-12T09:21:42.875Z,1.00
2018-07-12T09:24:12.532Z,42.10
2018-07-12T09:26:42.268Z,1.00
2018-07-12T09:29:11.949Z,1.00
2018-07-12T09:31:41.652Z,1.00
2018-07-12T09:34:11.193Z,1.00
2018-07-12T09:36:40.896Z,1.00
2018-07-12T09:39:10.717Z,1.00
2018-07-12T09:41:40.434Z,99.90
2018-07-12T09:44:10.194Z,15.80
2018-07-12T09:46:39.937Z,24.90
2018-07-12T09:49:09.605Z,27.20
2018-07-12T09:51:39.365Z,21.70
2018-07-12T09:54:09.264Z,99.90
2018-07-12T09:59:13.386Z,34.40
2018-07-12T10:02:51.947Z,32.00
2018-07-12T10:05:26.632Z,29.30
2018-07-12T10:08:01.485Z,30.10
2018-07-12T10:10:31.485Z,1.00
2018-07-12T10:13:06.257Z,28.90
2018-07-12T10:15:41.083Z,27.90
2018-07-12T10:18:15.909Z,26.40
2018-07-12T10:20:45.694Z,28.20
2018-07-12T10:23:15.388Z,28.70
2018-07-12T10:25:45.030Z,24.90
2018-07-12T10:28:14.783Z,26.60
2018-07-12T10:30:44.549Z,26.30
2018-07-12T10:33:14.231Z,28.90
2018-07-12T10:35:43.974Z,28.20
2018-07-12T10:38:13.670Z,31.40
2018-07-12T10:40:43.671Z,33.30
2018-07-12T10:43:13.280Z,34.30
2018-07-12T10:45:43.399Z,35.00
2018-07-12T10:48:13.206Z,36.30
2018-07-12T10:50:42.848Z,35.10
2018-07-12T10:53:12.537Z,39.20
2018-07-12T10:55:42.320Z,38.40
2018-07-12T11:00:40.974Z,37.40
2018-07-12T11:03:10.675Z,36.60
2018-07-12T11:05:40.395Z,40.40
2018-07-12T11:08:10.191Z,38.00
2018-07-12T11:10:39.969Z,38.70
2018-07-12T11:15:46.213Z,38.90
2018-07-12T11:18:16.001Z,37.20
2018-07-12T11:20:45.718Z,39.50
2018-07-12T11:23:15.336Z,38.50
2018-07-12T11:25:45.009Z,37.80
2018-07-12T11:28:14.797Z,40.00
2018-07-12T11:30:44.532Z,38.40
2018-07-12T11:33:50.492Z,39.50
2018-07-12T11:36:20.401Z,38.90
2018-07-12T11:38:50.129Z,41.50
2018-07-12T11:41:19.809Z,39.30
2018-07-12T11:43:49.568Z,41.20
2018-07-12T11:46:19.349Z,41.30
2018-07-12T11:48:49.028Z,40.60
2018-07-12T11:51:18.693Z,37.60
2018-07-12T11:53:48.551Z,38.20
2018-07-12T11:56:18.320Z,39.50
2018-07-12T11:58:47.999Z,37.10
2018-07-12T12:01:17.774Z,39.30
2018-07-12T12:03:47.454Z,40.10
2018-07-12T12:06:17.412Z,40.50
2018-07-12T12:08:47.167Z,37.90
2018-07-12T12:11:17.053Z,39.00
2018-07-12T12:13:46.797Z,39.80
2018-07-12T12:16:16.656Z,41.70
2018-07-12T12:18:46.409Z,41.50
2018-07-12T12:21:16.180Z,42.40
2018-07-12T12:23:45.832Z,41.70
2018-07-12T12:26:15.536Z,43.40
2018-07-12T12:28:45.213Z,46.10
2018-07-12T12:31:14.848Z,44.40
2018-07-12T12:33:44.729Z,44.70
2018-07-12T12:36:14.506Z,44.70
2018-07-12T12:38:44.248Z,45.40
2018-07-12T12:41:13.920Z,44.60
2018-07-12T12:43:43.877Z,45.40
2018-07-12T12:46:13.813Z,44.30
2018-07-12T12:48:43.826Z,43.60
2018-07-12T12:51:13.845Z,45.70
2018-07-12T12:53:43.436Z,42.90
2018-07-12T12:56:13.196Z,42.70
2018-07-12T12:58:42.957Z,42.60
2018-07-12T13:01:12.589Z,42.20
2018-07-12T13:03:42.448Z,40.50
2018-07-12T13:06:12.127Z,40.50
2018-07-12T13:08:41.831Z,41.30
2018-07-12T13:11:11.704Z,43.60
2018-07-12T13:18:39.452Z,42.00
2018-07-12T13:21:09.265Z,40.80
2018-07-12T13:23:38.978Z,42.50
2018-07-12T13:26:08.816Z,40.90
2018-07-12T13:31:07.849Z,42.20
2018-07-12T13:36:06.701Z,43.30
2018-07-12T13:38:36.360Z,41.10
2018-07-12T13:41:06.131Z,41.90
2018-07-12T13:43:35.844Z,40.70
2018-07-12T13:46:05.642Z,40.80
2018-07-12T13:48:35.465Z,42.40
2018-07-12T13:51:05.341Z,43.60
2018-07-12T13:53:34.861Z,43.80
2018-07-12T13:56:04.396Z,44.10
2018-07-12T13:58:34.275Z,43.80
2018-07-12T14:01:04.109Z,42.80
2018-07-12T14:03:33.686Z,41.70
2018-07-12T14:06:03.326Z,43.30
2018-07-12T14:08:33.010Z,41.70
2018-07-12T14:11:02.801Z,41.60
2018-07-12T14:16:01.537Z,40.80
2018-07-12T14:18:31.412Z,40.60
2018-07-12T14:21:01.181Z,40.80
2018-07-12T14:23:30.841Z,41.70
2018-07-12T14:26:00.395Z,41.40
2018-07-12T14:28:30.196Z,40.00
2018-07-12T14:31:00.305Z,41.00
2018-07-12T14:33:30.006Z,41.70
2018-07-12T14:35:59.644Z,41.10
2018-07-12T14:38:29.453Z,41.00
2018-07-12T14:40:59.253Z,42.30
2018-07-12T14:43:29.147Z,42.90
2018-07-12T14:45:58.891Z,41.30
2018-07-12T14:48:28.653Z,42.70
2018-07-12T14:50:58.307Z,42.20
2018-07-12T14:53:28.088Z,43.20
2018-07-12T14:55:57.914Z,41.10
2018-07-12T14:58:27.627Z,41.60
2018-07-12T15:00:57.528Z,41.60
2018-07-12T15:03:27.148Z,40.70
2018-07-12T15:05:56.757Z,41.30
2018-07-12T15:08:26.429Z,42.10
2018-07-12T15:10:56.265Z,41.40
2018-07-12T15:13:25.799Z,41.60
2018-07-12T15:15:55.708Z,42.40
2018-07-12T15:18:25.504Z,41.40
2018-07-12T15:20:55.121Z,43.20
2018-07-12T15:23:24.846Z,42.50
2018-07-12T15:25:54.760Z,42.80
2018-07-12T15:28:25.560Z,42.60
2018-07-12T15:30:55.289Z,42.40
2018-07-12T15:33:24.970Z,43.00
2018-07-12T15:35:54.616Z,44.00
2018-07-12T15:38:24.281Z,44.20
2018-07-12T15:43:23.036Z,45.00
2018-07-12T15:45:52.826Z,45.10
2018-07-12T15:48:22.525Z,45.60
2018-07-12T15:50:52.148Z,45.50
2018-07-12T15:53:21.699Z,46.20
2018-07-12T15:55:51.428Z,45.80
2018-07-12T15:58:21.193Z,46.50
2018-07-12T16:00:50.877Z,46.30
2018-07-12T16:03:20.456Z,46.10
2018-07-12T16:05:50.016Z,46.20
2018-07-12T16:08:19.695Z,46.30
2018-07-12T16:10:49.480Z,45.70
2018-07-12T16:13:18.917Z,45.40
2018-07-12T16:15:48.625Z,45.40
2018-07-12T16:18:18.228Z,45.80
2018-07-12T16:20:47.963Z,46.00
2018-07-12T16:23:17.632Z,45.40
2018-07-12T16:28:16.578Z,45.40
2018-07-12T16:30:46.366Z,45.40
2018-07-12T16:33:15.854Z,45.90
2018-07-12T16:35:45.607Z,45.90
2018-07-12T16:38:15.673Z,45.90
2018-07-12T16:40:45.450Z,46.00
2018-07-12T16:43:15.214Z,46.60
2018-07-12T16:45:44.958Z,45.50
2018-07-12T16:48:14.806Z,44.80
2018-07-12T16:50:44.823Z,45.00
2018-07-12T16:55:43.571Z,45.80
2018-07-12T16:58:13.296Z,46.30
2018-07-12T17:00:43.033Z,46.30
2018-07-12T17:03:12.675Z,46.20
2018-07-12T17:05:42.425Z,46.10
2018-07-12T17:08:12.251Z,46.30
2018-07-12T17:10:42.107Z,46.70
2018-07-12T17:13:12.441Z,47.20
2018-07-12T17:15:42.361Z,47.50
2018-07-12T17:18:12.844Z,47.60
2018-07-12T17:20:42.835Z,47.70
2018-07-12T17:23:12.304Z,47.50
2018-07-12T17:25:41.861Z,47.60
2018-07-12T17:28:11.312Z,48.10
2018-07-12T17:30:40.804Z,48.10
2018-07-12T17:33:10.312Z,48.10
2018-07-12T17:35:39.708Z,47.70
2018-07-12T17:38:09.116Z,48.10
2018-07-12T17:40:38.509Z,48.40
2018-07-12T17:43:07.915Z,48.80
2018-07-12T17:45:37.302Z,48.40
2018-07-12T17:48:06.689Z,48.80
2018-07-12T17:50:36.110Z,48.90
2018-07-12T17:53:05.539Z,48.90
2018-07-12T17:55:34.910Z,49.40
2018-07-12T17:58:04.361Z,50.00
2018-07-12T18:00:33.817Z,50.00
2018-07-12T18:03:03.200Z,51.30
2018-07-12T18:05:33.074Z,50.70
2018-07-12T18:08:02.457Z,50.30
2018-07-12T18:10:31.881Z,51.30
2018-07-12T18:13:01.265Z,51.50
2018-07-12T18:15:30.664Z,51.10
2018-07-12T18:18:00.050Z,51.50
2018-07-12T18:20:29.461Z,52.70
2018-07-12T18:22:58.842Z,53.10
2018-07-12T18:25:28.263Z,52.60
2018-07-12T18:27:57.716Z,53.20
2018-07-12T18:30:27.292Z,53.60
2018-07-12T18:32:57.747Z,53.40
2018-07-12T18:35:27.257Z,55.20
2018-07-12T18:37:56.756Z,54.70
2018-07-12T18:40:26.280Z,57.70
2018-07-12T18:42:55.708Z,57.30
2018-07-12T18:45:25.194Z,58.20
2018-07-12T18:47:54.771Z,58.30
2018-07-12T18:50:24.288Z,58.00
2018-07-12T18:52:53.757Z,58.70
2018-07-12T18:55:23.551Z,59.40
2018-07-12T18:57:53.454Z,59.50
2018-07-12T19:00:23.209Z,59.40
2018-07-12T19:02:53.036Z,59.70
2018-07-12T19:05:22.835Z,59.10
2018-07-12T19:07:52.553Z,59.20
2018-07-12T19:10:22.166Z,59.70
2018-07-12T19:12:52.283Z,60.60
2018-07-12T19:15:22.292Z,60.80
2018-07-12T19:17:52.186Z,61.30
2018-07-12T19:20:21.888Z,60.90
2018-07-12T19:22:51.260Z,60.70
2018-07-12T19:25:21.080Z,60.90
2018-07-12T19:27:50.480Z,62.10
2018-07-12T19:30:19.860Z,61.40
2018-07-12T19:32:49.224Z,62.50
2018-07-12T19:35:18.605Z,61.80
2018-07-12T19:37:47.967Z,61.40
2018-07-12T19:40:18.846Z,61.30
2018-07-12T19:42:49.678Z,61.30
2018-07-12T19:45:20.098Z,61.50
2018-07-12T19:47:49.781Z,62.00
2018-07-12T19:50:19.415Z,61.50
2018-07-12T19:52:49.364Z,62.70
2018-07-12T19:55:19.888Z,62.70
2018-07-12T19:57:50.516Z,63.50
2018-07-12T20:02:50.615Z,63.20
2018-07-12T20:05:21.028Z,63.90
2018-07-12T20:07:51.903Z,63.30
2018-07-12T20:10:22.589Z,63.00
2018-07-12T20:12:51.995Z,62.10
2018-07-12T20:15:21.495Z,63.10
2018-07-12T20:17:50.947Z,64.00
2018-07-12T20:20:20.345Z,64.40
2018-07-12T20:22:49.710Z,64.30
2018-07-12T20:25:19.122Z,64.60
2018-07-12T20:27:48.536Z,64.80
2018-07-12T20:30:17.916Z,63.90
2018-07-12T20:32:47.328Z,63.70
2018-07-12T20:35:16.749Z,63.10
2018-07-12T20:37:46.124Z,63.00
2018-07-12T20:40:15.508Z,63.70
2018-07-12T20:42:44.868Z,64.80
2018-07-12T20:45:14.256Z,64.70
2018-07-12T20:47:43.669Z,63.70
2018-07-12T20:50:13.056Z,63.50
2018-07-12T20:52:42.446Z,64.10
2018-07-12T20:55:11.895Z,63.90
2018-07-12T20:57:41.541Z,64.00
2018-07-12T21:00:12.647Z,64.50
2018-07-12T21:02:42.298Z,64.90
2018-07-12T21:05:12.111Z,64.10
2018-07-12T21:07:41.804Z,63.70
2018-07-12T21:10:11.519Z,63.60
2018-07-12T21:12:41.196Z,63.50
2018-07-12T21:15:10.953Z,63.80
2018-07-12T21:17:40.604Z,63.80
2018-07-12T21:20:10.389Z,64.00
2018-07-12T21:22:39.991Z,64.00
2018-07-12T21:25:09.756Z,63.50
2018-07-12T21:27:39.503Z,64.50
2018-07-12T21:30:11.132Z,64.30
2018-07-12T21:32:40.880Z,63.40
2018-07-12T21:35:10.636Z,63.20
2018-07-12T21:37:40.285Z,63.60
2018-07-12T21:40:10.169Z,64.00
2018-07-12T21:42:39.808Z,64.10
2018-07-12T21:45:09.514Z,63.90
2018-07-12T21:47:39.289Z,63.80
2018-07-12T21:50:09.029Z,63.50
2018-07-12T21:52:38.808Z,63.70
2018-07-12T21:55:08.474Z,64.00
2018-07-12T21:57:38.329Z,64.20
2018-07-12T22:00:09.718Z,64.20
2018-07-12T22:02:39.592Z,64.00
2018-07-12T22:05:09.349Z,64.00
2018-07-12T22:08:20.848Z,63.70
2018-07-12T22:10:52.676Z,63.80
2018-07-12T22:13:23.098Z,64.00
2018-07-12T22:15:52.828Z,65.10
2018-07-12T22:18:22.759Z,64.90
2018-07-12T22:20:52.561Z,65.00
2018-07-12T22:23:22.369Z,65.00
2018-07-12T22:25:52.042Z,65.20
2018-07-12T22:28:21.793Z,65.00
2018-07-12T22:30:51.559Z,65.60
2018-07-12T22:33:21.311Z,65.30
2018-07-12T22:35:50.984Z,65.80
2018-07-12T22:38:20.635Z,64.90
2018-07-12T22:40:50.332Z,64.90
2018-07-12T22:43:20.101Z,64.90
2018-07-12T22:45:49.748Z,65.30
2018-07-12T22:48:19.705Z,64.90
2018-07-12T22:50:49.377Z,65.10
2018-07-12T22:53:19.073Z,64.90
2018-07-12T22:55:48.688Z,65.80
2018-07-12T22:58:18.407Z,66.00
2018-07-12T23:00:48.292Z,64.90
2018-07-12T23:03:18.041Z,64.90
2018-07-12T23:05:47.914Z,65.30
2018-07-12T23:08:17.461Z,64.90
2018-07-12T23:10:47.253Z,64.90
2018-07-12T23:13:16.977Z,64.90
2018-07-12T23:15:46.701Z,64.90
2018-07-12T23:18:16.453Z,64.20
2018-07-12T23:20:46.117Z,64.10
2018-07-12T23:23:15.876Z,64.10
2018-07-12T23:28:14.737Z,64.10
2018-07-12T23:30:44.520Z,64.30
2018-07-12T23:33:14.217Z,64.10
2018-07-12T23:35:43.945Z,64.30
2018-07-12T23:38:13.827Z,64.00
2018-07-12T23:40:43.587Z,64.70
2018-07-12T23:43:13.450Z,64.70
2018-07-12T23:45:43.105Z,64.30
2018-07-12T23:48:12.799Z,63.80
2018-07-12T23:50:42.426Z,65.00
2018-07-12T23:53:12.112Z,64.70
2018-07-12T23:55:41.848Z,64.20
2018-07-12T23:58:11.657Z,64.30
